pogoda | Artykuly
2012-10-29

Depesza TAF - nowa pora roku, nowe zjawiska

TAF EPKT 182300Z 1900/1909 13004KT 7000 NSC TEMPO 1900/1908 4000 BR PROB40 1900/1907 1500 BR PROB30 1900/1906 0600 FG - co kryje w sobie ta depesza?
2012-10-09

Turbulencja

Gdyby nie było turbulencji łac. turbulentia – zamieszanie, zamęt) życie pilotów i meteorologów byłoby dużo prostsze. Wiatr miałby stałą prędkość i nie zmieniałby kierunku w sposób nieprzewidywalny, a latanie byłoby dużo bezpieczniejsze i komfortowe.
2012-07-02

Rutynowa obserwacja meteorologiczna z lotniska – METAR

METAR EPWR 272100Z 08003KT 4500 SHRA SCT011 SCT025CB 15/14 Q1016 - jak odczytać i zinterpretować zawarte w tej depeszy informacje? Odpowiadają eksperci z IBCOL meteo.
2012-06-26

Depesza TAF - jak ją odczytać

TAF COR EPRZ 191110Z 1912/2012 30011KT CAVOK TEMPO 1912/1924 BKN033CB PROB40 TEMPO 1912/1922 36016G28KT TS PROB30 TEMPO 1912/1920 TSGR BECMG 1918/1920 09008KT - czyli? Jak zrozumieć depeszę TAF i co oznaczają poszczególne symbole?
2012-06-22

Burze

Burza, zgodnie z Międzynarodowym Atlasem Chmur, definiowana jest jako zjawisko atmosferyczne z grupy elektrometeorów (do której zalicza się również ognie św. Elma oraz zorzę polarną) w postaci wyładowań atmosferycznych związanych z występowaniem chmur Cb (cumulonimbus). Stąd często spotykane utożsamianie dwóch odrębnych pojęć: burzy i chmury Cb.